Terminal Aerodrome Forecast
Issued by NWS Cleveland, OH

Home | Current Version | Previous Version | Graphics & Text | Print | Product List | Glossary On
Versions: 1 2 3 4 5 6 7 8 9 10 11 12 13 14
000
FTUS41 KCLE 151120
TAFYNG
TAF
KYNG 151120Z 1512/1612 12010KT P6SM OVC200
     FM152200 18010G20KT P6SM -SHRA OVC080
     FM160000 18010G20KT 3SM -SHRA BR OVC015
     FM160200 21010G20KT 3SM -SHRA BR OVC010
     FM160300 21010G20KT 5SM SHRA BR OVC007
     FM160500 23010KT P6SM OVC007
     FM160700 24010KT P6SM OVC015=

USA.gov is the U.S. government's official web portal to all federal, state and local government web resources and services.